Startpagina
METAR-TAF:

METAR-TAF

Vliegvelden :

Rurrenabaque, Bolivia

breedte: 14-28S, lengte: 067-34W, hoogte: 204 m

Actueel weer

Dit bericht is 7 uur en het 9 minuten geleden gemaakt, om 22:00 UTC
Weinig wind
Temperatuur 32°C
Vochtigheid 63%
Druk 1008 hPa
Zicht: 6000 m

METAR: SLRQ 252200Z 00000KT 6000 NSC 32/24 Q1008

Tijdstip: 01:09 (05:09 UTC)


TAF: ontbreekt

Waarnemingen en weersverwachtingen van meer dan 4000 vliegvelden (METAR en TAF).

De beschikbare stations zijn de gele en rode punten op de kaart.

Ga met uw muis naar het station om de naam te zien.

Klik dan om waarnemingen en weersverwachtingen te zien.

kaart wijzigen: klik op de groene knoppen met een zwart kruis om in te zoomen, op de groene knop met een streepje om uit te zoomen of op de groene pijlen voor aangrenzende kaarten.


METAR-TAF: